CheckWX is a tool to help pilots better visualize weather data.  It is not intended as a substitute for an official pre-flight weather briefing.

07:31:43 UTC

KPHX TAF
Phoenix Sky Harbor International Airport
Phoenix, Arizona, USA
KPHX 210531Z 2106/2212 VRB03KT P6SM SKC FM211000 11006KT P6SM SKC FM212100 26006KT P6SM SKC FM220600 VRB03KT P6SM SCT150 SCT250

Sep-21@
06:00 UTC

Sep-21 @ 06:00 UTC

Sep-21@
10:00 UTC

Sep-21 @ 10:00 UTC

KPHX 210531Z 2106/2212 VRB03KT P6SM SKC
Wind
  • Variable at 3 KTS
Cloud Levels
  • Clear skies

Sep-21@
10:00 UTC

Sep-21 @ 10:00 UTC

Sep-21@
21:00 UTC

Sep-21 @ 21:00 UTC

FM211000 11006KT P6SM SKC

From

From Standard forecast or significant change

Wind
  • 110° at 6 KTS
Cloud Levels
  • Clear skies

Sep-21@
21:00 UTC

Sep-21 @ 21:00 UTC

Sep-22@
06:00 UTC

Sep-22 @ 06:00 UTC

FM212100 26006KT P6SM SKC

From

From Standard forecast or significant change

Wind
  • 260° at 6 KTS
Cloud Levels
  • Clear skies

Sep-22@
06:00 UTC

Sep-22 @ 06:00 UTC

Sep-22@
12:00 UTC

Sep-22 @ 12:00 UTC

FM220600 VRB03KT P6SM SCT150 SCT250

From

From Standard forecast or significant change

Wind
  • Variable at 3 KTS
Cloud Levels
  • Scattered at 15,000' AGL
  • Scattered at 25,000' AGL